Weather at UNFICYP OP138 Heliport

Public forecast

Using degrees Celsius for public forecast. Weather courtesy of forecast.io.

Closest aviation weather report (METAR) to UNFICYP OP138 Heliport

Closest report is Larnaca International Airport, 16.6 nm (30.7 km) SW.

2023/02/05 16:00 (retrieved 35 minutes ago)

LCLK 051600Z 00000KT 8000 -TSRA FEW020 FEW022CB FEW025TCU BKN037 12/09 Q1004 NOSIG

Closest aviation forecast (TAF) to UNFICYP OP138 Heliport

Closest forecast is Larnaca International Airport, 16.6 nm (30.7 km) SW.

2023/02/05 12:30 (retrieved 4 hours ago)

TAF LCLK 051130Z 0512/0612 22014KT 9999 FEW020 SCT050 PROB40 TEMPO 0512/0612 4000 SHRA SCT030TCU PROB30 TEMPO 0512/0606 VRB25G35KT 3000 TSRA SCT025CB